sensor_id;sensor_type;location;lat;lon;timestamp;temperature;humidity
33837;DHT22;20140;49.356;8.812;2022-12-18T00:00:46;-9.20;99.90
33837;DHT22;20140;49.356;8.812;2022-12-18T00:03:13;-9.30;99.90
33837;DHT22;20140;49.356;8.812;2022-12-18T00:05:47;-9.30;99.90
33837;DHT22;20140;49.356;8.812;2022-12-18T00:08:12;-9.30;99.90
33837;DHT22;20140;49.356;8.812;2022-12-18T00:10:38;-9.20;99.90
33837;DHT22;20140;49.356;8.812;2022-12-18T00:13:04;-9.10;99.90
33837;DHT22;20140;49.356;8.812;2022-12-18T00:15:29;-9.00;99.90
33837;DHT22;20140;49.356;8.812;2022-12-18T00:17:55;-9.10;99.90
33837;DHT22;20140;49.356;8.812;2022-12-18T00:20:20;-9.20;99.90
33837;DHT22;20140;49.356;8.812;2022-12-18T00:22:51;-9.30;99.90
33837;DHT22;20140;49.356;8.812;2022-12-18T00:25:17;-9.20;99.90
33837;DHT22;20140;49.356;8.812;2022-12-18T00:27:42;-9.10;99.90
33837;DHT22;20140;49.356;8.812;2022-12-18T00:30:08;-9.20;99.90
33837;DHT22;20140;49.356;8.812;2022-12-18T00:32:34;-9.10;99.90
33837;DHT22;20140;49.356;8.812;2022-12-18T00:34:59;-9.10;99.90
33837;DHT22;20140;49.356;8.812;2022-12-18T00:37:25;-9.20;99.90
33837;DHT22;20140;49.356;8.812;2022-12-18T00:39:50;-9.20;99.90
33837;DHT22;20140;49.356;8.812;2022-12-18T00:42:16;-9.30;99.90
33837;DHT22;20140;49.356;8.812;2022-12-18T00:45:00;-9.20;99.90
33837;DHT22;20140;49.356;8.812;2022-12-18T00:47:26;-9.10;99.90
33837;DHT22;20140;49.356;8.812;2022-12-18T00:49:51;-9.10;99.90
33837;DHT22;20140;49.356;8.812;2022-12-18T00:52:17;-9.00;99.90
33837;DHT22;20140;49.356;8.812;2022-12-18T00:54:42;-9.00;99.90
33837;DHT22;20140;49.356;8.812;2022-12-18T00:57:08;-9.10;99.90
33837;DHT22;20140;49.356;8.812;2022-12-18T00:59:33;-9.10;99.90
33837;DHT22;20140;49.356;8.812;2022-12-18T01:01:59;-8.90;99.90
33837;DHT22;20140;49.356;8.812;2022-12-18T01:04:24;-8.90;99.90
33837;DHT22;20140;49.356;8.812;2022-12-18T01:06:50;-9.00;99.90
33837;DHT22;20140;49.356;8.812;2022-12-18T01:09:15;-9.10;99.90
33837;DHT22;20140;49.356;8.812;2022-12-18T01:11:41;-9.20;99.90
33837;DHT22;20140;49.356;8.812;2022-12-18T01:14:07;-9.10;99.90
33837;DHT22;20140;49.356;8.812;2022-12-18T01:16:32;-9.00;99.90
33837;DHT22;20140;49.356;8.812;2022-12-18T01:18:58;-9.00;99.90
33837;DHT22;20140;49.356;8.812;2022-12-18T01:21:24;-9.10;99.90
33837;DHT22;20140;49.356;8.812;2022-12-18T01:23:56;-9.10;99.90
33837;DHT22;20140;49.356;8.812;2022-12-18T01:26:23;-9.10;99.90
33837;DHT22;20140;49.356;8.812;2022-12-18T01:28:49;-9.10;99.90
33837;DHT22;20140;49.356;8.812;2022-12-18T01:31:24;-9.00;99.90
33837;DHT22;20140;49.356;8.812;2022-12-18T01:33:51;-9.10;99.90
33837;DHT22;20140;49.356;8.812;2022-12-18T01:36:26;-9.10;99.90
33837;DHT22;20140;49.356;8.812;2022-12-18T01:38:53;-9.10;99.90
33837;DHT22;20140;49.356;8.812;2022-12-18T01:41:25;-9.00;99.90
33837;DHT22;20140;49.356;8.812;2022-12-18T01:43:52;-8.90;99.90
33837;DHT22;20140;49.356;8.812;2022-12-18T01:46:19;-9.00;99.90
33837;DHT22;20140;49.356;8.812;2022-12-18T01:48:47;-9.00;99.90
33837;DHT22;20140;49.356;8.812;2022-12-18T01:51:14;-9.10;99.90
33837;DHT22;20140;49.356;8.812;2022-12-18T01:53:41;-9.10;99.90
33837;DHT22;20140;49.356;8.812;2022-12-18T01:56:08;-9.20;99.90
33837;DHT22;20140;49.356;8.812;2022-12-18T01:59:02;-9.30;99.90
33837;DHT22;20140;49.356;8.812;2022-12-18T02:01:30;-9.30;99.90
33837;DHT22;20140;49.356;8.812;2022-12-18T02:03:56;-9.20;99.90
33837;DHT22;20140;49.356;8.812;2022-12-18T02:06:41;-9.20;99.90
33837;DHT22;20140;49.356;8.812;2022-12-18T02:09:18;-9.20;99.90
33837;DHT22;20140;49.356;8.812;2022-12-18T02:11:59;-9.20;99.90
33837;DHT22;20140;49.356;8.812;2022-12-18T02:14:43;-9.10;99.90
33837;DHT22;20140;49.356;8.812;2022-12-18T02:17:19;-9.00;99.90
33837;DHT22;20140;49.356;8.812;2022-12-18T02:19:55;-8.90;99.90
33837;DHT22;20140;49.356;8.812;2022-12-18T02:22:55;-9.10;99.90
33837;DHT22;20140;49.356;8.812;2022-12-18T02:28:09;-9.30;99.90
33837;DHT22;20140;49.356;8.812;2022-12-18T02:30:37;-9.20;99.90
33837;DHT22;20140;49.356;8.812;2022-12-18T02:33:05;-9.20;99.90
33837;DHT22;20140;49.356;8.812;2022-12-18T02:35:32;-9.20;99.90
33837;DHT22;20140;49.356;8.812;2022-12-18T02:37:59;-9.20;99.90
33837;DHT22;20140;49.356;8.812;2022-12-18T02:40:27;-9.20;99.90
33837;DHT22;20140;49.356;8.812;2022-12-18T02:42:53;-9.30;99.90
33837;DHT22;20140;49.356;8.812;2022-12-18T02:45:19;-9.30;99.90
33837;DHT22;20140;49.356;8.812;2022-12-18T02:47:48;-9.40;99.90
33837;DHT22;20140;49.356;8.812;2022-12-18T02:50:35;-9.30;99.90
33837;DHT22;20140;49.356;8.812;2022-12-18T02:53:24;-9.30;99.90
33837;DHT22;20140;49.356;8.812;2022-12-18T02:56:33;-9.30;99.90
33837;DHT22;20140;49.356;8.812;2022-12-18T03:01:42;-9.20;99.90
33837;DHT22;20140;49.356;8.812;2022-12-18T03:04:32;-9.10;99.90
33837;DHT22;20140;49.356;8.812;2022-12-18T03:07:03;-9.10;99.90
33837;DHT22;20140;49.356;8.812;2022-12-18T03:09:36;-9.30;99.90
33837;DHT22;20140;49.356;8.812;2022-12-18T03:12:21;-9.30;99.90
33837;DHT22;20140;49.356;8.812;2022-12-18T03:15:06;-9.50;99.90
33837;DHT22;20140;49.356;8.812;2022-12-18T03:17:33;-9.50;99.90
33837;DHT22;20140;49.356;8.812;2022-12-18T03:20:04;-9.50;99.90
33837;DHT22;20140;49.356;8.812;2022-12-18T03:22:32;-9.60;99.90
33837;DHT22;20140;49.356;8.812;2022-12-18T03:25:01;-9.50;99.90
33837;DHT22;20140;49.356;8.812;2022-12-18T03:27:29;-9.50;99.90
33837;DHT22;20140;49.356;8.812;2022-12-18T03:30:07;-9.40;99.90
33837;DHT22;20140;49.356;8.812;2022-12-18T03:32:58;-9.40;99.90
33837;DHT22;20140;49.356;8.812;2022-12-18T03:35:33;-9.30;99.90
33837;DHT22;20140;49.356;8.812;2022-12-18T03:38:00;-9.20;99.90
33837;DHT22;20140;49.356;8.812;2022-12-18T03:40:33;-9.20;99.90
33837;DHT22;20140;49.356;8.812;2022-12-18T03:43:08;-9.20;99.90
33837;DHT22;20140;49.356;8.812;2022-12-18T03:45:39;-9.40;99.90
33837;DHT22;20140;49.356;8.812;2022-12-18T03:49:11;-9.50;99.90
33837;DHT22;20140;49.356;8.812;2022-12-18T03:51:09;-9.50;99.90
33837;DHT22;20140;49.356;8.812;2022-12-18T03:53:49;-9.60;99.90
33837;DHT22;20140;49.356;8.812;2022-12-18T03:56:16;-9.60;99.90
33837;DHT22;20140;49.356;8.812;2022-12-18T03:58:43;-9.60;99.90
33837;DHT22;20140;49.356;8.812;2022-12-18T04:01:13;-9.60;99.90
33837;DHT22;20140;49.356;8.812;2022-12-18T04:03:40;-9.70;99.90
33837;DHT22;20140;49.356;8.812;2022-12-18T04:06:07;-9.60;99.90
33837;DHT22;20140;49.356;8.812;2022-12-18T04:08:34;-9.60;99.90
33837;DHT22;20140;49.356;8.812;2022-12-18T04:11:01;-9.60;99.90
33837;DHT22;20140;49.356;8.812;2022-12-18T04:13:37;-9.50;99.90
33837;DHT22;20140;49.356;8.812;2022-12-18T04:16:04;-9.40;99.90
33837;DHT22;20140;49.356;8.812;2022-12-18T04:18:30;-9.30;99.90
33837;DHT22;20140;49.356;8.812;2022-12-18T04:20:55;-9.10;99.90
33837;DHT22;20140;49.356;8.812;2022-12-18T04:23:21;-9.10;99.90
33837;DHT22;20140;49.356;8.812;2022-12-18T04:25:47;-9.10;99.90
33837;DHT22;20140;49.356;8.812;2022-12-18T04:28:13;-9.10;99.90
33837;DHT22;20140;49.356;8.812;2022-12-18T04:30:38;-9.10;99.90
33837;DHT22;20140;49.356;8.812;2022-12-18T04:33:08;-9.30;99.90
33837;DHT22;20140;49.356;8.812;2022-12-18T04:35:34;-9.30;99.90
33837;DHT22;20140;49.356;8.812;2022-12-18T04:38:00;-9.40;99.90
33837;DHT22;20140;49.356;8.812;2022-12-18T04:40:25;-9.50;99.90
33837;DHT22;20140;49.356;8.812;2022-12-18T04:42:51;-9.60;99.90
33837;DHT22;20140;49.356;8.812;2022-12-18T04:45:16;-9.50;99.90
33837;DHT22;20140;49.356;8.812;2022-12-18T04:47:42;-9.50;99.90
33837;DHT22;20140;49.356;8.812;2022-12-18T04:50:07;-9.40;99.90
33837;DHT22;20140;49.356;8.812;2022-12-18T04:52:33;-9.40;99.90
33837;DHT22;20140;49.356;8.812;2022-12-18T04:54:58;-9.50;99.90
33837;DHT22;20140;49.356;8.812;2022-12-18T04:57:24;-9.40;99.90
33837;DHT22;20140;49.356;8.812;2022-12-18T04:59:49;-9.40;99.90
33837;DHT22;20140;49.356;8.812;2022-12-18T05:02:15;-9.50;99.90
33837;DHT22;20140;49.356;8.812;2022-12-18T05:04:40;-9.40;99.90
33837;DHT22;20140;49.356;8.812;2022-12-18T05:07:06;-9.40;99.90
33837;DHT22;20140;49.356;8.812;2022-12-18T05:09:31;-9.40;99.90
33837;DHT22;20140;49.356;8.812;2022-12-18T05:11:57;-9.30;99.90
33837;DHT22;20140;49.356;8.812;2022-12-18T05:14:22;-9.50;99.90
33837;DHT22;20140;49.356;8.812;2022-12-18T05:16:48;-9.50;99.90
33837;DHT22;20140;49.356;8.812;2022-12-18T05:19:14;-9.50;99.90
33837;DHT22;20140;49.356;8.812;2022-12-18T05:21:39;-9.60;99.90
33837;DHT22;20140;49.356;8.812;2022-12-18T05:24:05;-9.60;99.90
33837;DHT22;20140;49.356;8.812;2022-12-18T05:26:30;-9.60;99.90
33837;DHT22;20140;49.356;8.812;2022-12-18T05:28:56;-9.60;99.90
33837;DHT22;20140;49.356;8.812;2022-12-18T05:31:22;-9.60;99.90
33837;DHT22;20140;49.356;8.812;2022-12-18T05:33:47;-9.60;99.90
33837;DHT22;20140;49.356;8.812;2022-12-18T05:36:13;-9.60;99.90
33837;DHT22;20140;49.356;8.812;2022-12-18T05:38:39;-9.60;99.90
33837;DHT22;20140;49.356;8.812;2022-12-18T05:41:05;-9.60;99.90
33837;DHT22;20140;49.356;8.812;2022-12-18T05:43:34;-9.60;99.90
33837;DHT22;20140;49.356;8.812;2022-12-18T05:46:05;-9.60;99.90
33837;DHT22;20140;49.356;8.812;2022-12-18T05:48:31;-9.60;99.90
33837;DHT22;20140;49.356;8.812;2022-12-18T05:51:03;-9.50;99.90
33837;DHT22;20140;49.356;8.812;2022-12-18T05:53:30;-9.50;99.90
33837;DHT22;20140;49.356;8.812;2022-12-18T05:56:00;-9.50;99.90
33837;DHT22;20140;49.356;8.812;2022-12-18T05:58:26;-9.40;99.90
33837;DHT22;20140;49.356;8.812;2022-12-18T06:00:51;-9.30;99.90
33837;DHT22;20140;49.356;8.812;2022-12-18T06:03:17;-9.30;99.90
33837;DHT22;20140;49.356;8.812;2022-12-18T06:05:44;-9.40;99.90
33837;DHT22;20140;49.356;8.812;2022-12-18T06:08:11;-9.40;99.90
33837;DHT22;20140;49.356;8.812;2022-12-18T06:10:37;-9.40;99.90
33837;DHT22;20140;49.356;8.812;2022-12-18T06:13:03;-9.50;99.90
33837;DHT22;20140;49.356;8.812;2022-12-18T06:15:28;-9.40;99.90
33837;DHT22;20140;49.356;8.812;2022-12-18T06:17:54;-9.30;99.90
33837;DHT22;20140;49.356;8.812;2022-12-18T06:20:19;-9.20;99.90
33837;DHT22;20140;49.356;8.812;2022-12-18T06:22:45;-9.10;99.90
33837;DHT22;20140;49.356;8.812;2022-12-18T06:25:10;-8.90;99.90
33837;DHT22;20140;49.356;8.812;2022-12-18T06:27:36;-8.80;99.90
33837;DHT22;20140;49.356;8.812;2022-12-18T06:30:03;-8.80;99.90
33837;DHT22;20140;49.356;8.812;2022-12-18T06:32:28;-8.90;99.90
33837;DHT22;20140;49.356;8.812;2022-12-18T06:34:54;-8.80;99.90
33837;DHT22;20140;49.356;8.812;2022-12-18T06:37:20;-8.80;99.90
33837;DHT22;20140;49.356;8.812;2022-12-18T06:39:46;-8.80;99.90
33837;DHT22;20140;49.356;8.812;2022-12-18T06:42:12;-8.90;99.90
33837;DHT22;20140;49.356;8.812;2022-12-18T06:44:37;-8.80;99.90
33837;DHT22;20140;49.356;8.812;2022-12-18T06:47:03;-8.70;99.90
33837;DHT22;20140;49.356;8.812;2022-12-18T06:49:28;-8.60;99.90
33837;DHT22;20140;49.356;8.812;2022-12-18T06:51:54;-8.70;99.90
33837;DHT22;20140;49.356;8.812;2022-12-18T06:54:19;-8.90;99.90
33837;DHT22;20140;49.356;8.812;2022-12-18T06:56:46;-9.00;99.90
33837;DHT22;20140;49.356;8.812;2022-12-18T06:59:13;-9.10;99.90
33837;DHT22;20140;49.356;8.812;2022-12-18T07:01:38;-9.10;99.90
33837;DHT22;20140;49.356;8.812;2022-12-18T07:04:04;-9.10;99.90
33837;DHT22;20140;49.356;8.812;2022-12-18T07:06:29;-8.80;99.90
33837;DHT22;20140;49.356;8.812;2022-12-18T07:08:55;-8.60;99.90
33837;DHT22;20140;49.356;8.812;2022-12-18T07:11:21;-8.40;99.90
33837;DHT22;20140;49.356;8.812;2022-12-18T07:13:46;-8.30;99.90
33837;DHT22;20140;49.356;8.812;2022-12-18T07:16:18;-8.20;99.90
33837;DHT22;20140;49.356;8.812;2022-12-18T07:18:44;-8.10;99.90
33837;DHT22;20140;49.356;8.812;2022-12-18T07:21:16;-8.00;99.90
33837;DHT22;20140;49.356;8.812;2022-12-18T07:23:41;-8.10;99.90
33837;DHT22;20140;49.356;8.812;2022-12-18T07:26:12;-8.10;99.90
33837;DHT22;20140;49.356;8.812;2022-12-18T07:28:39;-8.10;99.90
33837;DHT22;20140;49.356;8.812;2022-12-18T07:31:07;-7.90;99.90
33837;DHT22;20140;49.356;8.812;2022-12-18T07:33:34;-7.80;99.90
33837;DHT22;20140;49.356;8.812;2022-12-18T07:36:01;-7.90;99.90
33837;DHT22;20140;49.356;8.812;2022-12-18T07:38:28;-7.80;99.90
33837;DHT22;20140;49.356;8.812;2022-12-18T07:40:53;-7.80;99.90
33837;DHT22;20140;49.356;8.812;2022-12-18T07:43:19;-7.70;99.90
33837;DHT22;20140;49.356;8.812;2022-12-18T07:45:44;-7.70;99.90
33837;DHT22;20140;49.356;8.812;2022-12-18T07:48:10;-7.70;99.90
33837;DHT22;20140;49.356;8.812;2022-12-18T07:50:36;-7.70;99.90
33837;DHT22;20140;49.356;8.812;2022-12-18T07:53:02;-7.60;99.90
33837;DHT22;20140;49.356;8.812;2022-12-18T07:55:30;-7.60;99.90
33837;DHT22;20140;49.356;8.812;2022-12-18T07:57:56;-7.60;99.90
33837;DHT22;20140;49.356;8.812;2022-12-18T08:00:22;-7.50;99.90
33837;DHT22;20140;49.356;8.812;2022-12-18T08:02:47;-7.50;99.90
33837;DHT22;20140;49.356;8.812;2022-12-18T08:05:13;-7.50;99.90
33837;DHT22;20140;49.356;8.812;2022-12-18T08:07:39;-7.50;99.90
33837;DHT22;20140;49.356;8.812;2022-12-18T08:10:05;-7.50;99.90
33837;DHT22;20140;49.356;8.812;2022-12-18T08:12:32;-7.50;99.90
33837;DHT22;20140;49.356;8.812;2022-12-18T08:14:57;-7.40;99.90
33837;DHT22;20140;49.356;8.812;2022-12-18T08:17:23;-7.30;99.90
33837;DHT22;20140;49.356;8.812;2022-12-18T08:19:48;-7.30;99.90
33837;DHT22;20140;49.356;8.812;2022-12-18T08:22:14;-7.20;99.90
33837;DHT22;20140;49.356;8.812;2022-12-18T08:24:39;-7.20;99.90
33837;DHT22;20140;49.356;8.812;2022-12-18T08:27:05;-7.20;99.90
33837;DHT22;20140;49.356;8.812;2022-12-18T08:29:30;-7.20;99.90
33837;DHT22;20140;49.356;8.812;2022-12-18T08:31:57;-7.10;99.90
33837;DHT22;20140;49.356;8.812;2022-12-18T08:34:22;-7.10;99.90
33837;DHT22;20140;49.356;8.812;2022-12-18T08:36:48;-7.00;99.90
33837;DHT22;20140;49.356;8.812;2022-12-18T08:39:13;-7.00;99.90
33837;DHT22;20140;49.356;8.812;2022-12-18T08:41:39;-7.00;99.90
33837;DHT22;20140;49.356;8.812;2022-12-18T08:44:04;-7.00;99.90
33837;DHT22;20140;49.356;8.812;2022-12-18T08:46:49;-6.90;99.90
33837;DHT22;20140;49.356;8.812;2022-12-18T08:49:14;-6.90;99.90
33837;DHT22;20140;49.356;8.812;2022-12-18T08:51:40;-6.80;99.90
33837;DHT22;20140;49.356;8.812;2022-12-18T08:54:06;-6.80;99.90
33837;DHT22;20140;49.356;8.812;2022-12-18T08:56:32;-6.80;99.90
33837;DHT22;20140;49.356;8.812;2022-12-18T08:58:58;-6.70;99.90
33837;DHT22;20140;49.356;8.812;2022-12-18T09:01:24;-6.70;99.90
33837;DHT22;20140;49.356;8.812;2022-12-18T09:03:50;-6.70;99.90
33837;DHT22;20140;49.356;8.812;2022-12-18T09:06:17;-6.70;99.90
33837;DHT22;20140;49.356;8.812;2022-12-18T09:08:44;-6.60;99.90
33837;DHT22;20140;49.356;8.812;2022-12-18T09:11:16;-6.60;99.90
33837;DHT22;20140;49.356;8.812;2022-12-18T09:13:43;-6.50;99.90
33837;DHT22;20140;49.356;8.812;2022-12-18T09:16:09;-6.50;99.90
33837;DHT22;20140;49.356;8.812;2022-12-18T09:18:35;-6.40;99.90
33837;DHT22;20140;49.356;8.812;2022-12-18T09:21:08;-6.40;99.90
33837;DHT22;20140;49.356;8.812;2022-12-18T09:23:33;-6.30;99.90
33837;DHT22;20140;49.356;8.812;2022-12-18T09:25:59;-6.20;99.90
33837;DHT22;20140;49.356;8.812;2022-12-18T09:28:25;-6.20;99.90
33837;DHT22;20140;49.356;8.812;2022-12-18T09:30:50;-6.20;99.90
33837;DHT22;20140;49.356;8.812;2022-12-18T09:33:17;-6.10;99.90
33837;DHT22;20140;49.356;8.812;2022-12-18T09:35:44;-6.10;99.90
33837;DHT22;20140;49.356;8.812;2022-12-18T09:38:16;-6.00;99.90
33837;DHT22;20140;49.356;8.812;2022-12-18T09:40:46;-5.90;99.90
33837;DHT22;20140;49.356;8.812;2022-12-18T09:43:20;-5.90;99.90
33837;DHT22;20140;49.356;8.812;2022-12-18T09:45:53;-5.80;99.90
33837;DHT22;20140;49.356;8.812;2022-12-18T09:48:33;-5.70;99.90
33837;DHT22;20140;49.356;8.812;2022-12-18T09:51:09;-5.70;99.90
33837;DHT22;20140;49.356;8.812;2022-12-18T09:53:38;-5.70;99.90
33837;DHT22;20140;49.356;8.812;2022-12-18T09:56:04;-5.60;99.90
33837;DHT22;20140;49.356;8.812;2022-12-18T09:58:31;-5.60;99.90
33837;DHT22;20140;49.356;8.812;2022-12-18T10:01:00;-5.50;99.90
33837;DHT22;20140;49.356;8.812;2022-12-18T10:03:25;-5.40;99.90
33837;DHT22;20140;49.356;8.812;2022-12-18T10:06:06;-5.40;99.90
33837;DHT22;20140;49.356;8.812;2022-12-18T10:11:49;-5.20;99.90
33837;DHT22;20140;49.356;8.812;2022-12-18T10:14:30;-5.10;99.90
33837;DHT22;20140;49.356;8.812;2022-12-18T10:23:18;-4.90;99.90
33837;DHT22;20140;49.356;8.812;2022-12-18T10:26:06;-4.90;99.90
33837;DHT22;20140;49.356;8.812;2022-12-18T10:28:35;-4.90;99.90
33837;DHT22;20140;49.356;8.812;2022-12-18T10:31:01;-4.80;99.90
33837;DHT22;20140;49.356;8.812;2022-12-18T10:33:31;-4.60;99.90
33837;DHT22;20140;49.356;8.812;2022-12-18T10:35:57;-4.60;99.90
33837;DHT22;20140;49.356;8.812;2022-12-18T10:38:26;-4.50;99.90
33837;DHT22;20140;49.356;8.812;2022-12-18T10:40:56;-4.50;99.90
33837;DHT22;20140;49.356;8.812;2022-12-18T10:43:36;-4.50;99.90
33837;DHT22;20140;49.356;8.812;2022-12-18T10:51:29;-4.10;99.90
33837;DHT22;20140;49.356;8.812;2022-12-18T10:53:59;-4.00;99.90
33837;DHT22;20140;49.356;8.812;2022-12-18T10:56:27;-3.80;99.90
33837;DHT22;20140;49.356;8.812;2022-12-18T10:59:02;-3.70;99.90
33837;DHT22;20140;49.356;8.812;2022-12-18T11:01:47;-3.70;99.90
33837;DHT22;20140;49.356;8.812;2022-12-18T11:07:06;-3.50;99.90
33837;DHT22;20140;49.356;8.812;2022-12-18T11:09:33;-3.40;99.90
33837;DHT22;20140;49.356;8.812;2022-12-18T11:12:02;-3.30;99.90
33837;DHT22;20140;49.356;8.812;2022-12-18T11:14:33;-3.30;99.90
33837;DHT22;20140;49.356;8.812;2022-12-18T11:17:00;-3.30;99.90
33837;DHT22;20140;49.356;8.812;2022-12-18T11:19:37;-3.10;99.90
33837;DHT22;20140;49.356;8.812;2022-12-18T11:22:28;-3.10;99.90
33837;DHT22;20140;49.356;8.812;2022-12-18T11:27:38;-2.90;99.90
33837;DHT22;20140;49.356;8.812;2022-12-18T11:30:20;-2.70;99.90
33837;DHT22;20140;49.356;8.812;2022-12-18T11:33:13;-2.60;99.90
33837;DHT22;20140;49.356;8.812;2022-12-18T11:35:56;-2.60;99.90
33837;DHT22;20140;49.356;8.812;2022-12-18T11:38:38;-2.30;99.90
33837;DHT22;20140;49.356;8.812;2022-12-18T11:41:27;-2.30;99.90
33837;DHT22;20140;49.356;8.812;2022-12-18T11:44:18;-2.30;99.90
33837;DHT22;20140;49.356;8.812;2022-12-18T11:46:55;-2.20;99.90
33837;DHT22;20140;49.356;8.812;2022-12-18T11:49:28;-2.20;99.90
33837;DHT22;20140;49.356;8.812;2022-12-18T11:52:03;-2.00;99.90
33837;DHT22;20140;49.356;8.812;2022-12-18T11:54:30;-1.90;99.90
33837;DHT22;20140;49.356;8.812;2022-12-18T11:57:02;-1.80;99.90
33837;DHT22;20140;49.356;8.812;2022-12-18T12:10:32;-1.70;99.90
33837;DHT22;20140;49.356;8.812;2022-12-18T12:13:21;-1.90;99.90
33837;DHT22;20140;49.356;8.812;2022-12-18T12:16:13;-1.80;99.90
33837;DHT22;20140;49.356;8.812;2022-12-18T12:19:15;-1.70;99.90
33837;DHT22;20140;49.356;8.812;2022-12-18T12:21:57;-1.70;99.90
33837;DHT22;20140;49.356;8.812;2022-12-18T12:30:05;-1.30;99.90
33837;DHT22;20140;49.356;8.812;2022-12-18T12:33:08;-1.10;99.90
33837;DHT22;20140;49.356;8.812;2022-12-18T12:35:47;-1.10;99.90
33837;DHT22;20140;49.356;8.812;2022-12-18T12:38:28;-1.10;99.90
33837;DHT22;20140;49.356;8.812;2022-12-18T12:41:01;-0.90;99.90
33837;DHT22;20140;49.356;8.812;2022-12-18T12:43:35;-0.70;99.90
33837;DHT22;20140;49.356;8.812;2022-12-18T12:46:06;-0.80;99.90
33837;DHT22;20140;49.356;8.812;2022-12-18T12:48:53;-0.90;99.90
33837;DHT22;20140;49.356;8.812;2022-12-18T12:51:22;-0.90;99.90
33837;DHT22;20140;49.356;8.812;2022-12-18T12:53:49;-0.80;99.90
33837;DHT22;20140;49.356;8.812;2022-12-18T12:56:17;-0.70;99.90
33837;DHT22;20140;49.356;8.812;2022-12-18T13:01:53;-0.40;99.90
33837;DHT22;20140;49.356;8.812;2022-12-18T13:04:56;0.20;99.90
33837;DHT22;20140;49.356;8.812;2022-12-18T13:07:49;-0.40;99.90
33837;DHT22;20140;49.356;8.812;2022-12-18T13:13:05;-0.50;99.90
33837;DHT22;20140;49.356;8.812;2022-12-18T13:15:48;-0.80;99.90
33837;DHT22;20140;49.356;8.812;2022-12-18T13:18:17;-0.80;99.90
33837;DHT22;20140;49.356;8.812;2022-12-18T13:26:00;-0.70;99.90
33837;DHT22;20140;49.356;8.812;2022-12-18T13:34:18;-0.60;99.90
33837;DHT22;20140;49.356;8.812;2022-12-18T13:36:45;-0.70;99.90
33837;DHT22;20140;49.356;8.812;2022-12-18T13:41:43;-0.80;99.90
33837;DHT22;20140;49.356;8.812;2022-12-18T13:46:49;-0.60;99.90
33837;DHT22;20140;49.356;8.812;2022-12-18T13:49:35;-0.50;99.90
33837;DHT22;20140;49.356;8.812;2022-12-18T13:52:02;-0.80;99.90
33837;DHT22;20140;49.356;8.812;2022-12-18T13:54:35;-0.60;99.90
33837;DHT22;20140;49.356;8.812;2022-12-18T13:57:02;-0.60;99.90
33837;DHT22;20140;49.356;8.812;2022-12-18T13:59:39;-0.70;99.90
33837;DHT22;20140;49.356;8.812;2022-12-18T14:02:15;-0.80;99.90
33837;DHT22;20140;49.356;8.812;2022-12-18T14:04:41;-0.90;99.90
33837;DHT22;20140;49.356;8.812;2022-12-18T14:07:13;-0.80;99.90
33837;DHT22;20140;49.356;8.812;2022-12-18T14:09:57;-0.80;99.90
33837;DHT22;20140;49.356;8.812;2022-12-18T14:12:31;-0.80;99.90
33837;DHT22;20140;49.356;8.812;2022-12-18T14:17:52;-1.00;99.90
33837;DHT22;20140;49.356;8.812;2022-12-18T14:20:19;-0.90;99.90
33837;DHT22;20140;49.356;8.812;2022-12-18T14:22:47;-1.00;99.90
33837;DHT22;20140;49.356;8.812;2022-12-18T14:25:23;-1.00;99.90
33837;DHT22;20140;49.356;8.812;2022-12-18T14:30:40;-1.00;99.90
33837;DHT22;20140;49.356;8.812;2022-12-18T14:33:15;-1.10;99.90
33837;DHT22;20140;49.356;8.812;2022-12-18T14:35:57;-1.10;99.90
33837;DHT22;20140;49.356;8.812;2022-12-18T14:41:19;-1.20;99.90
33837;DHT22;20140;49.356;8.812;2022-12-18T14:43:56;-1.20;99.90
33837;DHT22;20140;49.356;8.812;2022-12-18T14:46:35;-1.30;99.90
33837;DHT22;20140;49.356;8.812;2022-12-18T14:49:26;-1.30;99.90
33837;DHT22;20140;49.356;8.812;2022-12-18T14:51:55;-1.30;99.90
33837;DHT22;20140;49.356;8.812;2022-12-18T14:54:22;-1.40;99.90
33837;DHT22;20140;49.356;8.812;2022-12-18T14:57:03;-1.40;99.90
33837;DHT22;20140;49.356;8.812;2022-12-18T14:59:31;-1.40;99.90
33837;DHT22;20140;49.356;8.812;2022-12-18T15:02:20;-1.40;99.90
33837;DHT22;20140;49.356;8.812;2022-12-18T15:04:47;-1.50;99.90
33837;DHT22;20140;49.356;8.812;2022-12-18T15:07:21;-1.50;99.90
33837;DHT22;20140;49.356;8.812;2022-12-18T15:12:36;-1.60;99.90
33837;DHT22;20140;49.356;8.812;2022-12-18T15:15:03;-1.60;99.90
33837;DHT22;20140;49.356;8.812;2022-12-18T15:17:29;-1.60;99.90
33837;DHT22;20140;49.356;8.812;2022-12-18T15:20:01;-1.70;99.90
33837;DHT22;20140;49.356;8.812;2022-12-18T15:22:34;-1.70;99.90
33837;DHT22;20140;49.356;8.812;2022-12-18T15:25:01;-1.80;99.90
33837;DHT22;20140;49.356;8.812;2022-12-18T15:27:32;-1.80;99.90
33837;DHT22;20140;49.356;8.812;2022-12-18T15:30:19;-1.90;99.90
33837;DHT22;20140;49.356;8.812;2022-12-18T15:32:45;-1.90;99.90
33837;DHT22;20140;49.356;8.812;2022-12-18T15:35:19;-2.00;99.90
33837;DHT22;20140;49.356;8.812;2022-12-18T15:37:45;-2.10;99.90
33837;DHT22;20140;49.356;8.812;2022-12-18T15:40:16;-2.10;99.90
33837;DHT22;20140;49.356;8.812;2022-12-18T15:42:43;-2.20;99.90
33837;DHT22;20140;49.356;8.812;2022-12-18T15:45:28;-2.20;99.90
33837;DHT22;20140;49.356;8.812;2022-12-18T15:47:53;-2.20;99.90
33837;DHT22;20140;49.356;8.812;2022-12-18T15:50:19;-2.20;99.90
33837;DHT22;20140;49.356;8.812;2022-12-18T15:52:46;-2.20;99.90
33837;DHT22;20140;49.356;8.812;2022-12-18T15:55:18;-2.30;99.90
33837;DHT22;20140;49.356;8.812;2022-12-18T15:58:03;-2.30;99.90
33837;DHT22;20140;49.356;8.812;2022-12-18T16:00:28;-2.40;99.90
33837;DHT22;20140;49.356;8.812;2022-12-18T16:02:54;-2.30;99.90
33837;DHT22;20140;49.356;8.812;2022-12-18T16:05:24;-2.40;99.90
33837;DHT22;20140;49.356;8.812;2022-12-18T16:07:49;-2.50;99.90
33837;DHT22;20140;49.356;8.812;2022-12-18T16:10:17;-2.40;99.90
33837;DHT22;20140;49.356;8.812;2022-12-18T16:12:42;-2.40;99.90
33837;DHT22;20140;49.356;8.812;2022-12-18T16:15:12;-2.40;99.90
33837;DHT22;20140;49.356;8.812;2022-12-18T16:17:39;-2.50;99.90
33837;DHT22;20140;49.356;8.812;2022-12-18T16:20:06;-2.50;99.90
33837;DHT22;20140;49.356;8.812;2022-12-18T16:22:32;-2.50;99.90
33837;DHT22;20140;49.356;8.812;2022-12-18T16:24:57;-2.50;99.90
33837;DHT22;20140;49.356;8.812;2022-12-18T16:27:23;-2.50;99.90
33837;DHT22;20140;49.356;8.812;2022-12-18T16:29:50;-2.50;99.90
33837;DHT22;20140;49.356;8.812;2022-12-18T16:32:18;-2.50;99.90
33837;DHT22;20140;49.356;8.812;2022-12-18T16:34:44;-2.50;99.90
33837;DHT22;20140;49.356;8.812;2022-12-18T16:37:11;-2.50;99.90
33837;DHT22;20140;49.356;8.812;2022-12-18T16:39:38;-2.50;99.90
33837;DHT22;20140;49.356;8.812;2022-12-18T16:42:15;-2.50;99.90
33837;DHT22;20140;49.356;8.812;2022-12-18T16:44:42;-2.50;99.90
33837;DHT22;20140;49.356;8.812;2022-12-18T16:47:08;-2.40;99.90
33837;DHT22;20140;49.356;8.812;2022-12-18T16:49:34;-2.40;99.90
33837;DHT22;20140;49.356;8.812;2022-12-18T16:52:00;-2.40;99.90
33837;DHT22;20140;49.356;8.812;2022-12-18T16:54:25;-2.40;99.90
33837;DHT22;20140;49.356;8.812;2022-12-18T16:56:54;-2.40;99.90
33837;DHT22;20140;49.356;8.812;2022-12-18T16:59:20;-2.40;99.90
33837;DHT22;20140;49.356;8.812;2022-12-18T17:01:46;-2.40;99.90
33837;DHT22;20140;49.356;8.812;2022-12-18T17:04:12;-2.40;99.90